Time;durP1;ratioP1;P1;durP2;ratioP2;P2;SDS_P1;SDS_P2;PMS_P1;PMS_P2;Temp;Humidity;BMP_temperature;BMP_pressure;BME280_temperature;BME280_humidity;BME280_pressure;Samples;Min_cycle;Max_cycle;Signal;HPM_P1;HPM_P2
2024/04/05 05:03:01;;;;;;;;;;;;;;;5.88;84.24;100539.69;1839944;76;20430;-74
2024/04/05 05:05:27;;;;;;;;;;;;;;;5.84;84.46;100544.54;1809157;78;20184;-69
2024/04/05 05:07:54;;;;;;;;;;;;;;;5.82;83.52;100546.77;1775142;79;20118;-68
2024/04/05 05:10:23;;;;;;;;;;;;;;;5.77;83.81;100550.77;1778717;79;20164;-74
2024/04/05 05:12:50;;;;;;;;;;;;;;;5.76;84.22;100549.08;1739133;81;20151;-70
2024/04/05 05:15:16;;;;;;;;;;;;;;;5.80;84.17;100548.10;1761964;80;20134;-72
2024/04/05 05:17:43;;;;;;;;;;;;;;;5.87;84.39;100549.63;1754464;81;20422;-77
2024/04/05 05:20:11;;;;;;;;;;;;;;;6.00;84.99;100555.30;1742279;81;20140;-73
2024/04/05 05:22:39;;;;;;;;;;;;;;;6.17;85.41;100557.40;1719093;82;20167;-74
2024/04/05 05:25:08;;;;;;;;;;;;;;;6.33;83.98;100564.66;1762756;81;20157;-72
2024/04/05 05:27:35;;;;;;;;;;;;;;;6.43;83.93;100562.62;1750626;81;20141;-72
2024/04/05 05:30:03;;;;;;;;;;;;;;;6.54;82.47;100568.77;1743027;81;20174;-72
2024/04/05 05:32:31;;;;;;;;;;;;;;;6.53;82.58;100569.66;1741074;81;20127;-71
2024/04/05 05:34:58;;;;;;;;;;;;;;;6.59;82.65;100570.31;1747423;81;20090;-72
2024/04/05 05:37:24;;;;;;;;;;;;;;;6.66;81.84;100570.53;1741350;81;20173;-71
2024/04/05 05:39:50;;;;;;;;;;;;;;;6.67;81.40;100571.38;1740958;81;20087;-71
2024/04/05 05:42:17;;;;;;;;;;;;;;;6.71;81.66;100574.27;1750370;81;20128;-72
2024/04/05 05:44:43;;;;;;;;;;;;;;;6.79;81.00;100579.20;1760381;81;20097;-74
2024/04/05 05:47:11;;;;;;;;;;;;;;;6.87;80.27;100578.48;1754400;81;20220;-74
2024/04/05 05:49:37;;;;;;;;;;;;;;;6.92;80.03;100582.63;1749703;81;20108;-75
2024/04/05 05:52:08;;;;;;;;;;;;;;;6.97;79.28;100589.80;1758459;81;20120;-76
2024/04/05 05:54:32;;;;;;;;;;;;;;;6.99;78.77;100589.75;1741332;81;20388;-72
2024/04/05 05:56:59;;;;;;;;;;;;;;;7.02;79.11;100595.67;1755588;81;20100;-71
2024/04/05 05:59:25;;;;;;;;;;;;;;;7.11;78.95;100589.80;1742262;81;20138;-72
2024/04/05 06:01:51;;;;;;;;;;;;;;;7.18;78.75;100594.73;1743177;81;20130;-73
2024/04/05 06:04:18;;;;;;;;;;;;;;;7.25;78.19;100594.05;1747834;82;20110;-75
2024/04/05 06:06:44;;;;;;;;;;;;;;;7.35;77.76;100597.59;1746655;82;20111;-75
2024/04/05 06:09:13;;;;;;;;;;;;;;;7.46;76.89;100598.52;1743991;82;20098;-71
2024/04/05 06:11:39;;;;;;;;;;;;;;;7.56;76.09;100599.06;1736114;81;20113;-71
2024/04/05 06:14:05;;;;;;;;;;;;;;;7.62;75.70;100595.78;1734293;81;20155;-71
2024/04/05 06:16:32;;;;;;;;;;;;;;;7.69;75.70;100589.48;1729170;82;20556;-72
2024/04/05 06:18:58;;;;;;;;;;;;;;;7.80;75.56;100594.30;1727969;82;20095;-76
2024/04/05 06:21:24;;;;;;;;;;;;;;;7.92;75.50;100596.91;1727695;82;20137;-72
2024/04/05 06:23:51;;;;;;;;;;;;;;;8.07;74.84;100601.51;1745247;82;20129;-74
2024/04/05 06:26:17;;;;;;;;;;;;;;;8.20;73.55;100598.02;1742428;82;20101;-72
2024/04/05 06:28:44;;;;;;;;;;;;;;;8.23;72.73;100597.45;1741403;81;20124;-72
2024/04/05 06:31:11;;;;;;;;;;;;;;;8.34;72.92;100602.28;1743737;82;20498;-75
2024/04/05 06:33:37;;;;;;;;;;;;;;;8.47;72.30;100598.30;1752144;82;20181;-76
2024/04/05 06:36:07;;;;;;;;;;;;;;;8.59;71.24;100601.72;1735136;81;20152;-76
2024/04/05 06:38:33;;;;;;;;;;;;;;;8.71;71.02;100602.16;1744780;81;20152;-72
2024/04/05 06:40:59;;;;;;;;;;;;;;;8.81;70.69;100598.27;1733133;81;20169;-72
2024/04/05 06:43:27;;;;;;;;;;;;;;;8.89;69.75;100595.76;1737808;82;20434;-71
2024/04/05 06:45:55;;;;;;;;;;;;;;;8.92;69.33;100592.19;1727373;82;20144;-70
2024/04/05 06:48:21;;;;;;;;;;;;;;;9.00;69.32;100592.28;1728675;82;20152;-74
2024/04/05 06:51:12;;;;;;;;;;;;;;;9.06;68.74;100593.78;1740833;81;20134;-71
2024/04/05 06:53:56;;;;;;;;;;;;;;;9.06;68.65;100591.19;1748941;81;20176;-72
2024/04/05 06:56:23;;;;;;;;;;;;;;;9.05;68.11;100596.45;1746151;82;20485;-75
2024/04/05 06:58:49;;;;;;;;;;;;;;;9.13;68.55;100595.69;1727577;82;20446;-74
2024/04/05 07:01:33;;;;;;;;;;;;;;;9.25;67.27;100594.70;1729673;82;20450;-70
2024/04/05 07:04:22;;;;;;;;;;;;;;;9.27;67.49;100592.03;1727479;82;20119;-69
2024/04/05 07:06:48;;;;;;;;;;;;;;;9.33;66.79;100593.93;1727428;82;20222;-72
2024/04/05 07:09:15;;;;;;;;;;;;;;;9.22;66.49;100589.63;1740038;82;20161;-71
2024/04/05 07:11:44;;;;;;;;;;;;;;;9.11;66.76;100594.45;1742430;81;20103;-72
2024/04/05 07:14:28;;;;;;;;;;;;;;;9.17;67.47;100598.09;1724629;81;20129;-72
2024/04/05 07:16:55;;;;;;;;;;;;;;;9.35;67.39;100593.87;1727401;82;20100;-72
2024/04/05 07:19:40;;;;;;;;;;;;;;;9.52;66.66;100590.11;1738846;82;20098;-70
2024/04/05 07:22:24;;;;;;;;;;;;;;;9.71;65.84;100587.53;1741273;82;20517;-71
2024/04/05 07:24:59;;;;;;;;;;;;;;;9.79;65.63;100587.20;1729483;82;20123;-72
2024/04/05 07:27:26;;;;;;;;;;;;;;;9.89;65.06;100590.64;1737329;82;20106;-70
2024/04/05 07:30:13;;;;;;;;;;;;;;;9.87;64.58;100585.12;1742144;82;20146;-73
2024/04/05 07:33:12;;;;;;;;;;;;;;;9.95;64.36;100586.47;1746889;81;20425;-75
2024/04/05 07:35:40;;;;;;;;;;;;;;;10.12;64.56;100592.66;1739840;82;20187;-73
2024/04/05 07:38:27;;;;;;;;;;;;;;;10.27;64.59;100586.79;1737217;82;20103;-72
2024/04/05 07:41:13;;;;;;;;;;;;;;;10.47;64.13;100591.05;1726631;82;20136;-70
2024/04/05 07:43:41;;;;;;;;;;;;;;;10.76;63.41;100593.14;1733314;82;20172;-70
2024/04/05 07:46:07;;;;;;;;;;;;;;;11.07;61.91;100592.95;1751375;82;20111;-71
2024/04/05 07:48:34;;;;;;;;;;;;;;;11.26;60.82;100592.41;1728376;82;20117;-74
2024/04/05 07:51:18;;;;;;;;;;;;;;;11.40;60.71;100595.17;1734487;82;20171;-72
2024/04/05 07:54:03;;;;;;;;;;;;;;;11.63;60.01;100590.06;1738084;82;20238;-73
2024/04/05 07:56:47;;;;;;;;;;;;;;;11.96;60.01;100588.82;1734439;82;20180;-73
2024/04/05 07:59:14;;;;;;;;;;;;;;;12.37;58.88;100589.20;1746511;82;20145;-73
2024/04/05 08:01:43;;;;;;;;;;;;;;;12.73;57.59;100586.78;1746532;81;20412;-75
2024/04/05 08:04:10;;;;;;;;;;;;;;;12.97;56.13;100582.77;1733094;82;20134;-74
2024/04/05 08:06:39;;;;;;;;;;;;;;;13.14;54.56;100577.88;1746705;81;20187;-73
2024/04/05 08:09:27;;;;;;;;;;;;;;;13.26;52.97;100572.78;1742340;82;20171;-71
2024/04/05 08:11:53;;;;;;;;;;;;;;;13.10;52.64;100572.45;1737382;82;20168;-72
2024/04/05 08:14:21;;;;;;;;;;;;;;;12.97;53.43;100569.23;1731467;81;20124;-70
2024/04/05 08:17:06;;;;;;;;;;;;;;;12.96;53.18;100574.08;1740827;82;20169;-71
2024/04/05 08:19:32;;;;;;;;;;;;;;;12.89;53.34;100567.52;1736937;82;20168;-71
2024/04/05 08:22:17;;;;;;;;;;;;;;;12.86;53.00;100566.37;1732355;82;20909;-71
2024/04/05 08:25:02;;;;;;;;;;;;;;;12.62;52.95;100569.92;1731311;82;20158;-72
2024/04/05 08:27:31;;;;;;;;;;;;;;;12.25;53.90;100563.29;1727763;82;20156;-70
2024/04/05 08:29:58;;;;;;;;;;;;;;;12.14;54.85;100553.05;1727915;82;20359;-70
2024/04/05 08:32:24;;;;;;;;;;;;;;;12.22;54.83;100560.00;1727502;82;20133;-74
2024/04/05 08:34:50;;;;;;;;;;;;;;;12.29;54.50;100556.13;1737730;82;20099;-72
2024/04/05 08:37:17;;;;;;;;;;;;;;;12.25;54.14;100549.39;1734233;82;20164;-71
2024/04/05 08:39:44;;;;;;;;;;;;;;;12.29;54.79;100548.30;1737583;82;20380;-70
2024/04/05 08:42:14;;;;;;;;;;;;;;;12.41;53.79;100546.30;1733294;82;20159;-72
2024/04/05 08:44:43;;;;;;;;;;;;;;;12.38;54.80;100542.58;1746366;81;20153;-73
2024/04/05 08:47:09;;;;;;;;;;;;;;;12.54;54.58;100544.69;1745014;81;20281;-74
2024/04/05 08:49:54;;;;;;;;;;;;;;;12.65;55.18;100542.33;1726853;82;20887;-73
2024/04/05 08:52:21;;;;;;;;;;;;;;;12.84;54.69;100537.34;1749088;82;20132;-73
2024/04/05 08:54:48;;;;;;;;;;;;;;;12.96;54.75;100535.33;1733835;82;20205;-70
2024/04/05 08:57:36;;;;;;;;;;;;;;;13.10;53.95;100536.69;1733299;82;20171;-73
2024/04/05 09:00:05;;;;;;;;;;;;;;;13.07;52.37;100538.17;1732402;82;20424;-73
2024/04/05 09:02:54;;;;;;;;;;;;;;;12.84;51.82;100545.17;1749523;82;20373;-71
2024/04/05 09:05:22;;;;;;;;;;;;;;;12.52;52.27;100541.78;1733763;81;20172;-71
2024/04/05 09:08:08;;;;;;;;;;;;;;;12.26;52.75;100545.39;1734579;81;20104;-75
2024/04/05 09:10:52;;;;;;;;;;;;;;;12.04;53.43;100547.47;1736835;82;20174;-72
2024/04/05 09:13:37;;;;;;;;;;;;;;;11.96;53.29;100553.13;1735947;82;20183;-71
2024/04/05 11:19:51;;;;;;;;;;;;;;;11.02;54.00;100494.14;1769383;79;20145;-69
2024/04/05 11:22:18;;;;;;;;;;;;;;;11.12;53.44;100490.16;1740556;82;20214;-77
2024/04/05 11:25:04;;;;;;;;;;;;;;;11.22;53.49;100483.98;1747135;81;20630;-71
2024/04/05 11:27:33;;;;;;;;;;;;;;;11.29;51.95;100477.08;1744006;82;20139;-72
2024/04/05 11:30:19;;;;;;;;;;;;;;;11.31;52.61;100482.22;1735671;81;20108;-81
2024/04/05 11:32:46;;;;;;;;;;;;;;;11.31;53.01;100473.09;1743076;81;20182;-76
2024/04/05 11:35:41;;;;;;;;;;;;;;;11.34;52.93;100474.23;1741732;82;20210;-74
2024/04/05 11:38:11;;;;;;;;;;;;;;;11.33;53.30;100473.39;1737504;82;20162;-76
2024/04/05 11:40:39;;;;;;;;;;;;;;;11.37;54.37;100471.47;1738751;81;20280;-69
2024/04/05 11:43:12;;;;;;;;;;;;;;;11.38;53.88;100466.64;1740281;81;20157;-71
2024/04/05 11:45:54;;;;;;;;;;;;;;;11.36;53.26;100463.27;1741178;81;20198;-70
2024/04/05 11:48:20;;;;;;;;;;;;;;;11.33;53.88;100458.21;1734764;82;20479;-84
2024/04/05 11:50:50;;;;;;;;;;;;;;;11.32;54.85;100455.22;1709632;83;20131;-78
2024/04/05 11:53:36;;;;;;;;;;;;;;;11.34;54.82;100452.08;1738349;81;20111;-75
2024/04/05 11:56:04;;;;;;;;;;;;;;;11.36;54.35;100460.20;1740125;82;20265;-69
2024/04/05 11:58:33;;;;;;;;;;;;;;;11.38;53.52;100451.45;1744953;81;20129;-69
2024/04/05 12:01:01;;;;;;;;;;;;;;;11.39;52.00;100447.92;1743873;82;20236;-68
2024/04/05 12:03:29;;;;;;;;;;;;;;;11.38;51.43;100444.94;1739342;82;20200;-69
2024/04/05 12:05:56;;;;;;;;;;;;;;;11.37;50.83;100445.39;1739980;81;20110;-71
2024/04/05 12:08:22;;;;;;;;;;;;;;;11.37;50.63;100441.48;1742042;82;20119;-74
2024/04/05 12:11:07;;;;;;;;;;;;;;;11.41;51.02;100448.69;1740323;82;20198;-76
2024/04/05 12:13:34;;;;;;;;;;;;;;;11.39;51.50;100438.34;1747739;81;20146;-78
2024/04/05 12:16:19;;;;;;;;;;;;;;;11.41;51.64;100439.56;1755850;81;20222;-80
2024/04/05 12:18:45;;;;;;;;;;;;;;;11.46;51.95;100445.38;1734605;82;20182;-78
2024/04/05 12:21:11;;;;;;;;;;;;;;;11.51;51.21;100452.03;1745037;81;20173;-76
2024/04/05 12:23:40;;;;;;;;;;;;;;;11.54;51.59;100442.75;1745733;82;20676;-77
2024/04/05 12:26:25;;;;;;;;;;;;;;;11.57;51.76;100437.37;1738693;82;20156;-72
2024/04/05 12:29:10;;;;;;;;;;;;;;;11.63;51.95;100441.39;1735780;82;20239;-74
2024/04/05 12:31:36;;;;;;;;;;;;;;;11.69;50.97;100436.69;1743795;82;20123;-68
2024/04/05 12:34:03;;;;;;;;;;;;;;;11.75;50.15;100426.84;1734245;82;20226;-68
2024/04/05 12:36:30;;;;;;;;;;;;;;;11.75;50.90;100432.91;1733187;82;20488;-72
2024/04/05 12:39:24;;;;;;;;;;;;;;;11.78;50.86;100424.95;1736842;81;20139;-75
2024/04/05 13:01:09;;;;;;;;;;;;;;;12.48;47.53;100408.36;1778408;79;20106;-70
2024/04/05 13:03:32;;;;;;;;;;;;;;;12.51;47.00;100408.19;1755184;81;20144;-71
2024/04/05 13:06:10;;;;;;;;;;;;;;;12.51;47.62;100406.41;1749526;81;20135;-69
2024/04/05 13:08:38;;;;;;;;;;;;;;;12.51;48.57;100401.20;1730277;82;20136;-71
2024/04/05 13:11:23;;;;;;;;;;;;;;;12.53;48.97;100400.64;1735344;82;20427;-70
2024/04/05 13:14:07;;;;;;;;;;;;;;;12.53;49.41;100395.42;1725200;81;20461;-70
2024/04/05 13:16:55;;;;;;;;;;;;;;;12.53;50.07;100399.33;1743565;82;20107;-72
2024/04/05 13:19:20;;;;;;;;;;;;;;;12.51;50.64;100393.82;1734399;81;20132;-71
2024/04/05 13:21:46;;;;;;;;;;;;;;;12.49;50.86;100394.38;1739895;82;20149;-81
2024/04/05 13:24:14;;;;;;;;;;;;;;;12.48;50.84;100388.31;1733193;82;20610;-73
2024/04/05 13:26:41;;;;;;;;;;;;;;;12.47;51.03;100384.02;1726530;83;20110;-76
2024/04/05 13:29:14;;;;;;;;;;;;;;;12.49;51.35;100375.63;1728436;81;20216;-73
2024/04/05 13:31:41;;;;;;;;;;;;;;;12.56;51.08;100379.56;1732342;82;20125;-72
2024/04/05 13:34:09;;;;;;;;;;;;;;;12.61;50.33;100382.75;1739609;82;20131;-75
2024/04/05 13:36:56;;;;;;;;;;;;;;;12.65;50.76;100379.49;1732820;81;20134;-72
2024/04/05 13:39:23;;;;;;;;;;;;;;;12.72;51.08;100368.22;1732724;82;20383;-77
2024/04/05 13:41:50;;;;;;;;;;;;;;;12.78;51.80;100377.00;1735623;82;20119;-71
2024/04/05 13:44:16;;;;;;;;;;;;;;;12.87;51.25;100376.42;1735602;81;20420;-74
2024/04/05 13:47:01;;;;;;;;;;;;;;;12.93;50.56;100373.45;1744345;81;20341;-76
2024/04/05 13:49:28;;;;;;;;;;;;;;;12.97;50.35;100371.02;1742495;82;20166;-70
